Time;durP1;ratioP1;P1;durP2;ratioP2;P2;SDS_P1;SDS_P2;PMS_P1;PMS_P2;Temp;Humidity;BMP_temperature;BMP_pressure;BME280_temperature;BME280_humidity;BME280_pressure;Samples;Min_cycle;Max_cycle;Signal;HPM_P1;HPM_P2
2022/06/19 00:01:06;;;;;;;7.28;4.40;;;21.40;99.90;;;-144.05;64.52;125687.94;6194493;23;20012;-86
2022/06/19 00:03:48;;;;;;;9.50;4.57;;;21.30;99.90;;;-144.05;65.11;125687.94;6197237;23;20001;-88
2022/06/19 00:06:15;;;;;;;12.48;4.63;;;21.30;99.90;;;-144.05;65.13;125687.94;6198758;23;20001;-88
2022/06/19 00:08:43;;;;;;;7.13;4.25;;;21.20;99.90;;;-144.05;65.16;125687.94;6192759;23;20040;-87
2022/06/19 00:11:14;;;;;;;7.88;3.95;;;21.20;99.90;;;-144.05;65.50;125687.94;6189434;23;20039;-85
2022/06/19 00:13:40;;;;;;;7.80;4.53;;;21.10;99.90;;;-144.05;65.85;125687.94;6188586;23;20013;-86
2022/06/19 00:16:06;;;;;;;9.77;4.35;;;21.10;99.90;;;-144.05;65.89;125687.94;6187371;23;20005;-84
2022/06/19 00:18:34;;;;;;;5.22;3.63;;;21.10;99.90;;;-144.05;65.85;125687.94;6188210;23;20009;-86
2022/06/19 00:21:01;;;;;;;8.30;4.40;;;21.00;99.90;;;-144.05;66.26;125687.94;6187572;23;20013;-86
2022/06/19 00:23:27;;;;;;;7.85;4.63;;;21.00;99.90;;;-144.05;66.41;125687.94;6186774;23;20032;-87
2022/06/19 00:25:53;;;;;;;6.45;4.03;;;20.90;99.90;;;-144.05;66.53;125687.94;6187339;23;20452;-86
2022/06/19 00:28:19;;;;;;;7.57;3.90;;;20.90;99.90;;;-144.05;66.46;125687.94;6188736;23;20009;-84
2022/06/19 00:30:45;;;;;;;6.68;3.83;;;20.90;99.90;;;-144.05;66.49;125687.94;6187716;23;20459;-87
2022/06/19 00:33:10;;;;;;;8.32;4.05;;;20.80;99.90;;;-144.05;66.51;125687.94;6188265;23;20009;-86
2022/06/19 00:35:36;;;;;;;5.07;3.45;;;20.80;99.90;;;-144.05;66.75;125687.94;6133482;23;20088;-86
2022/06/19 00:38:02;;;;;;;5.82;3.97;;;20.80;99.90;;;-144.05;67.00;125687.94;6133439;23;20013;-86
2022/06/19 00:40:33;;;;;;;5.20;3.80;;;20.70;99.90;;;-144.05;66.96;125687.94;6134328;23;20041;-86
2022/06/19 00:42:59;;;;;;;7.85;4.13;;;20.70;99.90;;;-144.05;67.23;125687.94;6134275;23;20005;-85
2022/06/19 00:45:49;;;;;;;6.18;3.22;;;20.60;99.90;;;-144.05;67.36;125687.94;6135962;23;20006;-88
2022/06/19 00:48:35;;;;;;;3.75;3.33;;;20.60;99.90;;;-144.05;67.31;125687.94;6135986;23;20010;-88
2022/06/19 00:51:05;;;;;;;10.70;4.07;;;20.50;99.90;;;-144.05;67.39;125687.94;6138612;23;20108;-85
2022/06/19 00:53:47;;;;;;;4.88;3.33;;;20.50;99.90;;;-144.05;67.32;125687.94;6140599;23;20466;-85
2022/06/19 00:56:20;;;;;;;5.88;3.28;;;20.40;99.90;;;-144.05;67.38;125687.94;6142235;23;20439;-89
2022/06/19 00:58:52;;;;;;;5.32;3.75;;;20.40;99.90;;;-144.05;67.87;125687.94;6144376;23;20285;-87
2022/06/19 01:01:26;;;;;;;6.13;3.45;;;20.40;99.90;;;-144.05;67.81;125687.94;6173795;23;20031;-87
2022/06/19 01:04:02;;;;;;;5.95;3.88;;;20.30;99.90;;;-144.05;68.09;125687.94;6155091;23;20116;-85
2022/06/19 01:06:28;;;;;;;8.20;3.80;;;20.20;99.90;;;-144.05;68.28;125687.94;6135550;23;20013;-85
2022/06/19 01:08:56;;;;;;;8.07;3.90;;;20.10;99.90;;;-144.05;68.13;125687.94;6161548;23;20004;-85
2022/06/19 01:11:29;;;;;;;5.82;3.55;;;20.10;99.90;;;-144.05;68.32;125687.94;6161417;23;20600;-84
2022/06/19 01:13:55;;;;;;;4.47;3.60;;;20.00;99.90;;;-144.05;68.27;125687.94;6135214;23;20166;-86
2022/06/19 01:16:22;;;;;;;4.57;2.80;;;20.00;99.90;;;-144.05;68.47;125687.94;6161187;23;20005;-83
2022/06/19 01:18:48;;;;;;;7.35;3.67;;;19.90;99.90;;;-144.05;68.94;125687.94;6133922;23;20036;-87
2022/06/19 01:21:49;;;;;;;5.45;3.25;;;19.80;99.90;;;-144.05;69.09;125687.94;6134923;23;20403;-86
2022/06/19 01:24:51;;;;;;;5.60;3.22;;;19.80;99.90;;;-144.05;68.94;125687.94;6160864;23;20386;-86
2022/06/19 01:30:07;;;;;;;4.57;2.78;;;19.70;99.90;;;-144.05;68.73;125687.94;6162224;23;20045;-86
2022/06/19 01:32:37;;;;;;;4.68;3.05;;;19.60;99.90;;;-144.05;69.05;125687.94;6135524;23;20005;-86
2022/06/19 01:35:08;;;;;;;6.10;3.50;;;19.60;99.90;;;-144.05;69.42;125687.94;6176084;23;20394;-85
2022/06/19 01:37:40;;;;;;;6.30;3.25;;;19.50;99.90;;;-144.05;69.10;125687.94;6189406;23;20391;-87
2022/06/19 01:40:33;;;;;;;7.30;3.15;;;19.50;99.90;;;-144.05;69.42;125687.94;6191361;23;20350;-87
2022/06/19 01:42:59;;;;;;;6.10;2.83;;;19.40;99.90;;;-144.05;69.06;125687.94;6190911;23;20005;-88
2022/06/19 01:45:26;;;;;;;4.18;2.95;;;19.40;99.90;;;-144.05;69.10;125687.94;6189606;23;20342;-85
2022/06/19 01:47:52;;;;;;;4.50;2.90;;;19.40;99.90;;;-144.05;69.36;125687.94;6190516;23;20039;-85
2022/06/19 01:50:27;;;;;;;7.05;3.20;;;19.30;99.90;;;-144.05;69.64;125687.94;6190368;23;20360;-84
2022/06/19 01:53:09;;;;;;;6.10;2.80;;;19.20;99.90;;;-144.05;69.81;125687.94;6190110;23;20080;-87
2022/06/19 01:55:38;;;;;;;6.00;2.75;;;19.20;99.90;;;-144.05;69.65;125687.94;6190914;23;20005;-87
2022/06/19 01:58:06;;;;;;;5.35;2.83;;;19.10;99.90;;;-144.05;70.49;125687.94;6190954;23;20005;-85
2022/06/19 02:00:36;;;;;;;5.13;3.00;;;19.10;99.90;;;-144.05;70.28;125687.94;6192292;23;20012;-87
2022/06/19 02:03:35;;;;;;;4.90;2.90;;;19.10;99.90;;;-144.05;70.27;125687.94;6190662;23;20012;-86
2022/06/19 02:06:03;;;;;;;5.82;3.53;;;19.10;99.90;;;-144.05;69.77;125687.94;6192476;23;20035;-88
2022/06/19 02:08:34;;;;;;;6.32;3.45;;;19.00;99.90;;;-144.05;70.00;125687.94;6198135;23;20004;-87
2022/06/19 02:11:04;;;;;;;5.00;2.92;;;19.10;99.90;;;-144.05;69.47;125687.94;6197345;23;20454;-86
2022/06/19 02:13:32;;;;;;;5.70;2.60;;;19.00;99.90;;;-144.05;69.53;125687.94;6188948;23;20020;-87
2022/06/19 02:15:59;;;;;;;4.55;2.75;;;19.00;99.90;;;-144.05;69.31;125687.94;6189726;23;20029;-86
2022/06/19 02:18:39;;;;;;;5.43;2.75;;;19.00;99.90;;;-144.05;69.63;125687.94;6189618;23;20033;-85
2022/06/19 02:21:37;;;;;;;5.88;2.60;;;19.00;99.90;;;-144.05;69.53;125687.94;6191492;23;20009;-85
2022/06/19 02:24:07;;;;;;;5.40;2.65;;;18.90;99.90;;;-144.05;69.77;125687.94;6193334;23;20027;-85
2022/06/19 02:26:39;;;;;;;5.75;2.90;;;18.80;99.90;;;-144.05;69.77;125687.94;6198094;23;20024;-87
2022/06/19 02:29:11;;;;;;;3.75;2.30;;;18.80;99.90;;;-144.05;69.56;125687.94;6194351;23;20091;-86
2022/06/19 02:31:41;;;;;;;4.57;3.00;;;18.80;99.90;;;-144.05;69.72;125687.94;6187303;23;20009;-86
2022/06/19 02:34:37;;;;;;;6.35;2.40;;;18.70;99.90;;;-144.05;69.39;125687.94;6186789;23;20071;-86
2022/06/19 02:37:21;;;;;;;2.92;2.30;;;18.70;99.90;;;-144.05;69.34;125687.94;6189607;23;20005;-87
2022/06/19 02:40:24;;;;;;;7.18;3.03;;;18.70;99.90;;;-144.05;69.43;125687.94;6187423;23;20092;-85
2022/06/19 02:42:51;;;;;;;5.88;2.60;;;18.70;99.90;;;-144.05;69.15;125687.94;6187102;23;20431;-87
2022/06/19 02:45:22;;;;;;;4.07;2.65;;;18.60;99.90;;;-144.05;69.70;125687.94;6188684;23;20124;-86
2022/06/19 02:47:53;;;;;;;5.35;2.38;;;18.60;99.90;;;-144.05;69.46;125687.94;6212560;23;20099;-86
2022/06/19 02:50:25;;;;;;;6.88;2.53;;;18.50;99.90;;;-144.05;69.62;125687.94;6187525;23;20016;-86
2022/06/19 02:52:54;;;;;;;8.18;2.90;;;18.50;99.90;;;-144.05;69.88;125687.94;6188283;23;20044;-85
2022/06/19 02:55:23;;;;;;;5.85;2.72;;;18.40;99.90;;;-144.05;69.99;125687.94;6190214;23;20067;-86
2022/06/19 02:57:51;;;;;;;2.58;2.00;;;18.40;99.90;;;-144.05;69.98;125687.94;6189398;23;20083;-86
2022/06/19 03:00:28;;;;;;;5.65;2.67;;;18.30;99.90;;;-144.05;70.58;125687.94;6190833;23;20009;-88
2022/06/19 03:03:08;;;;;;;5.88;3.03;;;18.30;99.90;;;-144.05;70.44;125687.94;6191168;23;20012;-87
2022/06/19 03:05:35;;;;;;;7.35;2.90;;;18.20;99.90;;;-144.05;70.63;125687.94;6191862;23;20009;-85
2022/06/19 03:08:01;;;;;;;5.03;2.88;;;18.20;99.90;;;-144.05;70.76;125687.94;6193347;23;20485;-85
2022/06/19 03:10:30;;;;;;;4.75;3.15;;;18.20;99.90;;;-144.05;70.96;125687.94;6195663;23;20017;-89
2022/06/19 03:12:58;;;;;;;5.13;2.90;;;18.10;99.90;;;-144.05;71.08;125687.94;6201184;23;20020;-87
2022/06/19 03:15:25;;;;;;;4.32;2.72;;;18.10;99.90;;;-144.05;71.17;125687.94;6200651;23;20422;-85
2022/06/19 03:17:52;;;;;;;5.05;2.90;;;18.10;99.90;;;-144.05;71.22;125687.94;6188577;23;20063;-86
2022/06/19 03:20:22;;;;;;;4.80;2.95;;;18.00;99.90;;;-144.05;71.39;125687.94;6187643;23;20009;-85
2022/06/19 03:22:48;;;;;;;7.88;2.85;;;18.10;99.90;;;-144.05;70.76;125687.94;6186674;23;20012;-85
2022/06/19 03:25:14;;;;;;;4.95;3.05;;;18.10;99.90;;;-144.05;70.00;125687.94;6186455;23;20017;-86
2022/06/19 03:27:40;;;;;;;6.90;3.33;;;18.00;99.90;;;-144.05;69.99;125687.94;6186137;23;20453;-84
2022/06/19 03:30:08;;;;;;;5.68;2.95;;;18.00;99.90;;;-144.05;70.39;125687.94;6186135;23;20092;-86
2022/06/19 03:32:34;;;;;;;3.50;2.67;;;17.90;99.90;;;-144.05;70.74;125687.94;6187380;23;20009;-87
2022/06/19 03:35:00;;;;;;;8.13;2.80;;;17.90;99.90;;;-144.05;70.56;125687.94;6186265;23;20023;-84
2022/06/19 03:37:26;;;;;;;4.10;2.80;;;17.80;99.90;;;-144.05;70.57;125687.94;6187737;23;20017;-86
2022/06/19 03:39:52;;;;;;;6.43;2.47;;;17.80;99.90;;;-144.05;70.41;125687.94;6186730;23;20015;-84
2022/06/19 03:42:18;;;;;;;4.05;2.22;;;17.70;99.90;;;-144.05;69.95;125687.94;6187652;23;20009;-87
2022/06/19 03:44:44;;;;;;;5.35;2.20;;;17.60;99.90;;;-144.05;69.27;125687.94;6186007;23;20306;-86
2022/06/19 03:47:23;;;;;;;3.42;1.77;;;17.60;99.90;;;-144.05;69.13;125687.94;6186405;23;20012;-85
2022/06/19 03:49:49;;;;;;;5.07;2.10;;;17.50;99.90;;;-144.05;69.03;125687.94;6185905;23;20092;-87
2022/06/19 03:52:16;;;;;;;3.35;1.75;;;17.50;99.90;;;-144.05;68.64;125687.94;6185626;23;20059;-87
2022/06/19 03:54:42;;;;;;;7.50;2.47;;;17.40;99.90;;;-144.05;68.21;125687.94;6186341;23;20013;-87
2022/06/19 03:57:13;;;;;;;5.70;2.00;;;17.40;99.90;;;-144.05;67.57;125687.94;6187531;23;20351;-86
2022/06/19 03:59:39;;;;;;;4.95;1.90;;;17.30;99.90;;;-144.05;67.42;125687.94;6186775;23;20005;-85
2022/06/19 04:02:05;;;;;;;10.23;2.63;;;17.30;99.90;;;-144.05;66.90;125687.94;6186445;23;20139;-85
2022/06/19 04:04:31;;;;;;;4.43;1.67;;;17.30;99.90;;;-144.05;66.76;125687.94;6185884;23;20070;-87
2022/06/19 04:06:57;;;;;;;6.70;2.25;;;17.20;99.90;;;-144.05;66.02;125687.94;6186047;23;20005;-87
2022/06/19 04:09:23;;;;;;;5.95;2.40;;;17.20;99.90;;;-144.05;65.67;125687.94;6211143;23;20158;-87
2022/06/19 04:11:49;;;;;;;6.40;1.80;;;17.20;99.90;;;-144.05;65.29;125687.94;6187676;23;20001;-87
2022/06/19 04:14:15;;;;;;;5.25;2.00;;;17.10;99.90;;;-144.05;65.19;125687.94;6186396;23;20001;-86
2022/06/19 04:16:45;;;;;;;9.60;2.45;;;17.10;99.90;;;-144.05;64.34;125687.94;6186664;23;20009;-87
2022/06/19 04:19:11;;;;;;;7.45;2.03;;;17.10;99.90;;;-144.05;64.25;125687.94;6186504;23;20012;-87
2022/06/19 04:21:47;;;;;;;7.68;2.03;;;17.10;99.90;;;-144.05;64.21;125687.94;6187262;23;20457;-88
2022/06/19 04:24:21;;;;;;;12.15;2.47;;;17.00;99.90;;;-144.05;63.99;125687.94;6186796;23;20009;-85
2022/06/19 04:26:49;;;;;;;8.50;2.55;;;17.00;99.90;;;-144.05;63.43;125687.94;6191175;23;20012;-89
2022/06/19 04:29:17;;;;;;;7.07;2.28;;;17.00;99.90;;;-144.05;63.66;125687.94;6198120;23;20064;-85
2022/06/19 04:31:43;;;;;;;5.35;1.90;;;16.90;99.90;;;-144.05;63.65;125687.94;6187005;23;20005;-88
2022/06/19 04:34:10;;;;;;;11.93;2.60;;;17.00;99.90;;;-144.05;63.38;125687.94;6188047;23;20044;-88
2022/06/19 04:36:38;;;;;;;8.27;2.40;;;16.90;99.90;;;-144.05;63.04;125687.94;6187424;23;20019;-87
2022/06/19 04:39:05;;;;;;;6.60;2.42;;;16.90;99.90;;;-144.05;62.87;125687.94;6188174;23;20447;-87
2022/06/19 04:41:43;;;;;;;7.90;2.45;;;16.90;99.90;;;-144.05;62.83;125687.94;6187395;23;20013;-86
2022/06/19 04:44:15;;;;;;;8.80;2.25;;;17.00;99.90;;;-144.05;61.72;125687.94;6186705;23;20044;-86
2022/06/19 04:46:43;;;;;;;9.48;2.63;;;17.00;99.90;;;-144.05;60.36;125687.94;6186493;23;20016;-85
2022/06/19 04:49:12;;;;;;;9.93;2.40;;;17.10;99.90;;;-144.05;58.50;125687.94;6188454;23;20099;-89
2022/06/19 04:51:39;;;;;;;15.23;3.03;;;17.10;99.90;;;-144.05;58.18;125687.94;6191808;23;20005;-89
2022/06/19 04:54:07;;;;;;;8.25;2.60;;;17.00;99.90;;;-144.05;58.21;125687.94;6186777;23;20387;-86
2022/06/19 04:56:33;;;;;;;14.85;2.75;;;17.10;99.90;;;-144.05;58.43;125687.94;6187770;23;20005;-87
2022/06/19 04:58:59;;;;;;;8.50;1.83;;;17.10;99.90;;;-144.05;56.93;125687.94;6190508;23;20009;-87
2022/06/19 05:01:39;;;;;;;9.50;2.70;;;17.10;99.90;;;-144.05;56.06;125687.94;6207275;23;20007;-85
2022/06/19 05:04:12;;;;;;;10.45;2.60;;;17.20;99.90;;;-144.05;55.31;125687.94;6209794;23;20001;-86
2022/06/19 05:06:39;;;;;;;12.85;2.45;;;17.30;99.90;;;-144.05;55.14;125687.94;6197019;23;20013;-85
2022/06/19 05:09:05;;;;;;;16.67;2.88;;;17.30;99.90;;;-144.05;54.01;125687.94;6187035;23;20005;-86
2022/06/19 05:11:32;;;;;;;11.20;2.28;;;17.30;99.90;;;-144.05;53.43;125687.94;6188376;23;20013;-87
2022/06/19 05:14:00;;;;;;;12.57;2.13;;;17.30;99.90;;;-144.05;52.68;125687.94;6188635;23;20001;-89
2022/06/19 05:16:27;;;;;;;14.30;2.70;;;17.30;99.90;;;-144.05;52.37;125687.94;6190253;23;20490;-88
2022/06/19 05:18:56;;;;;;;9.63;2.00;;;17.30;99.90;;;-144.05;52.60;125687.94;6190522;23;20339;-86
2022/06/19 05:21:25;;;;;;;13.13;2.88;;;17.30;99.90;;;-144.05;51.98;125687.94;6190932;23;20020;-88
2022/06/19 05:23:55;;;;;;;13.50;2.10;;;17.40;99.90;;;-144.05;52.02;125687.94;6197688;23;20009;-90
2022/06/19 05:26:33;;;;;;;13.02;2.65;;;17.60;99.90;;;-144.05;50.63;125687.94;6201217;23;20005;-86
2022/06/19 05:29:01;;;;;;;10.35;2.40;;;17.70;99.90;;;-144.05;50.56;125687.94;6189058;23;20051;-86
2022/06/19 05:31:28;;;;;;;8.30;1.90;;;17.70;99.90;;;-144.05;50.51;125687.94;6190163;23;20005;-87
2022/06/19 05:33:56;;;;;;;9.48;2.67;;;17.90;99.90;;;-144.05;49.99;125687.94;6187135;23;20021;-88
2022/06/19 05:36:26;;;;;;;11.65;3.10;;;18.00;99.90;;;-144.05;49.51;125687.94;6187612;23;20066;-84
2022/06/19 05:38:54;;;;;;;15.70;2.90;;;18.10;99.90;;;-144.05;47.81;125687.94;6214338;23;20045;-85
2022/06/19 05:41:20;;;;;;;18.73;2.80;;;18.20;99.90;;;-144.05;47.31;125687.94;6191327;23;20005;-87
2022/06/19 05:43:50;;;;;;;15.27;2.40;;;18.30;99.90;;;-144.05;47.48;125687.94;6192073;23;20304;-87
2022/06/19 05:46:20;;;;;;;11.75;2.97;;;18.40;99.90;;;-144.05;46.72;125687.94;6191391;23;20343;-87
2022/06/19 05:48:46;;;;;;;16.63;2.83;;;18.40;99.90;;;-144.05;47.03;125687.94;6190606;23;20036;-87
2022/06/19 05:51:20;;;;;;;8.60;2.10;;;18.40;99.90;;;-144.05;46.16;125687.94;6192991;23;20005;-87
2022/06/19 05:53:56;;;;;;;14.23;2.63;;;18.40;99.90;;;-144.05;46.02;125687.94;6190658;23;20012;-87
2022/06/19 05:56:24;;;;;;;8.25;2.50;;;18.60;99.90;;;-144.05;45.83;125687.94;6190874;23;20016;-86
2022/06/19 05:58:50;;;;;;;7.20;2.33;;;18.60;99.90;;;-144.05;44.67;125687.94;6191167;23;20123;-88
2022/06/19 06:01:20;;;;;;;12.25;2.30;;;18.80;99.90;;;-144.05;44.73;125687.94;6191326;23;20394;-89
2022/06/19 06:03:47;;;;;;;9.63;2.22;;;19.00;99.90;;;-144.05;44.31;125687.94;6192399;23;20008;-87
2022/06/19 06:06:23;;;;;;;9.30;2.35;;;19.20;99.90;;;-144.05;44.31;125687.94;6189217;23;20427;-87
2022/06/19 06:08:50;;;;;;;;;;;19.30;99.90;;;-144.05;43.29;125687.94;6190418;23;20032;-87
2022/06/19 06:11:17;;;;;;;12.13;2.53;;;19.30;99.90;;;-144.05;43.17;125687.94;6190051;23;19904;-86
2022/06/19 06:13:43;;;;;;;17.08;2.50;;;19.50;99.90;;;-144.05;43.41;125687.94;6188928;23;20076;-87
2022/06/19 06:16:16;;;;;;;14.65;2.88;;;19.50;99.90;;;-144.05;43.28;125687.94;6189554;23;20067;-88
2022/06/19 06:18:42;;;;;;;11.43;2.30;;;19.40;99.90;;;-144.05;43.13;125687.94;6189085;23;20009;-85
2022/06/19 06:21:16;;;;;;;9.50;2.65;;;19.70;99.90;;;-144.05;42.70;125687.94;6189423;23;20031;-85
2022/06/19 06:23:42;;;;;;;11.77;2.72;;;20.10;99.90;;;-144.05;42.11;125687.94;6188788;23;20012;-85
2022/06/19 06:26:22;;;;;;;18.38;2.80;;;20.10;99.90;;;-144.05;42.88;125687.94;6189197;23;20048;-88
2022/06/19 06:28:54;;;;;;;9.63;2.38;;;19.80;99.90;;;-144.05;42.56;125687.94;6187155;23;20017;-86
2022/06/19 06:31:22;;;;;;;7.72;2.58;;;19.80;99.90;;;-144.05;42.25;125687.94;6189538;23;20451;-86
2022/06/19 06:33:48;;;;;;;12.82;3.15;;;20.00;99.90;;;-144.05;42.31;125687.94;6186389;23;20068;-85
2022/06/19 06:36:14;;;;;;;13.60;3.50;;;20.10;99.90;;;-144.05;42.05;125687.94;6187850;23;20004;-86
2022/06/19 06:38:40;;;;;;;15.10;2.92;;;20.10;99.90;;;-144.05;42.21;125687.94;6187184;23;20036;-87
2022/06/19 06:41:14;;;;;;;11.30;2.90;;;20.10;99.90;;;-144.05;42.77;125687.94;6187235;23;20009;-85
2022/06/19 06:43:44;;;;;;;12.98;3.05;;;20.00;99.90;;;-144.05;44.10;125687.94;6187245;23;20465;-85
2022/06/19 06:46:23;;;;;;;10.75;2.97;;;19.90;99.90;;;-144.05;43.96;125687.94;6188225;23;20083;-86
2022/06/19 06:48:54;;;;;;;12.75;3.10;;;19.70;99.90;;;-144.05;44.87;125687.94;6194152;23;20013;-88
2022/06/19 06:51:26;;;;;;;10.65;2.88;;;19.40;99.90;;;-144.05;44.23;125687.94;6194272;23;20005;-86
2022/06/19 06:53:54;;;;;;;12.70;2.60;;;19.60;99.90;;;-144.05;43.18;125687.94;6185885;23;20393;-85
2022/06/19 06:56:21;;;;;;;11.30;2.80;;;20.10;99.90;;;-144.05;43.04;125687.94;6185907;23;20292;-85
2022/06/19 06:58:48;;;;;;;13.27;3.28;;;20.40;99.90;;;-144.05;42.25;125687.94;6187469;23;20141;-84
2022/06/19 07:01:20;;;;;;;13.20;2.78;;;20.70;99.90;;;-144.05;43.01;125687.94;6187498;23;20013;-85
2022/06/19 07:03:54;;;;;;;10.57;2.72;;;20.70;99.90;;;-144.05;41.65;125687.94;6211495;23;20013;-86
2022/06/19 07:06:23;;;;;;;15.25;2.78;;;21.10;99.90;;;-144.05;40.95;125687.94;6186728;23;20013;-83
2022/06/19 07:08:49;;;;;;;15.90;3.53;;;21.60;99.90;;;-144.05;40.23;125687.94;6188964;23;20009;-87
2022/06/19 07:11:35;;;;;;;12.02;2.85;;;21.80;99.90;;;-144.05;39.77;125687.94;6187810;23;20424;-85
2022/06/19 07:14:01;;;;;;;8.80;2.10;;;22.20;99.90;;;-144.05;39.10;125687.94;6214196;23;20009;-88
2022/06/19 07:16:27;;;;;;;9.85;2.85;;;22.60;99.90;;;-144.05;38.55;125687.94;6190555;23;20016;-84
2022/06/19 07:18:53;;;;;;;12.68;2.92;;;22.90;99.90;;;-144.05;38.43;125687.94;6190782;23;20197;-86
2022/06/19 07:21:19;;;;;;;11.00;2.72;;;23.10;99.90;;;-144.05;37.53;125687.94;6189125;23;20043;-86
2022/06/19 07:23:45;;;;;;;8.70;2.17;;;23.20;99.40;;;-144.05;37.67;125687.94;6190178;23;20009;-86
2022/06/19 07:26:18;;;;;;;12.32;2.75;;;23.50;99.80;;;-144.05;37.19;125687.94;6189670;23;20016;-85
2022/06/19 07:28:45;;;;;;;11.05;3.00;;;23.80;97.60;;;-144.05;36.16;125687.94;6190504;23;20408;-85
2022/06/19 07:31:11;;;;;;;9.90;2.20;;;24.00;93.90;;;-144.05;36.19;125687.94;6191653;23;20001;-86
2022/06/19 07:33:39;;;;;;;11.85;2.85;;;24.00;94.00;;;-144.05;35.93;125687.94;6189624;23;20008;-88
2022/06/19 07:36:15;;;;;;;12.63;2.58;;;24.20;93.10;;;-144.05;36.08;125687.94;6198412;23;20025;-89
2022/06/19 07:38:42;;;;;;;11.93;2.80;;;24.40;92.80;;;-144.05;35.76;125687.94;6191264;23;20348;-86
2022/06/19 07:41:08;;;;;;;9.73;3.30;;;24.70;92.10;;;-144.05;35.29;125687.94;6190347;23;20013;-86
2022/06/19 07:43:34;;;;;;;13.98;2.95;;;24.80;90.40;;;-144.05;35.12;125687.94;6189529;23;20055;-86
2022/06/19 07:46:00;;;;;;;12.65;2.90;;;24.90;89.00;;;-144.05;34.77;125687.94;6187306;23;20009;-86
2022/06/19 07:51:11;;;;;;;14.70;2.75;;;25.10;88.00;;;-144.05;34.84;125687.94;6187137;23;20015;-87
2022/06/19 07:53:37;;;;;;;9.52;2.40;;;25.20;86.60;;;-144.05;35.02;125687.94;6188799;23;20308;-87
2022/06/19 07:56:04;;;;;;;11.13;3.08;;;25.00;86.80;;;-144.05;34.88;125687.94;6186506;23;20001;-87
2022/06/19 07:58:30;;;;;;;9.50;2.58;;;25.20;85.70;;;-144.05;34.52;125687.94;6186128;23;20036;-89
2022/06/19 08:00:56;;;;;;;11.00;3.33;;;25.20;84.40;;;-144.05;35.94;125687.94;6185870;23;20052;-87
2022/06/19 08:03:22;;;;;;;10.23;2.55;;;24.70;86.50;;;-144.05;35.97;125687.94;6185692;23;20323;-88
2022/06/19 08:05:49;;;;;;;7.32;2.22;;;24.70;87.10;;;-144.05;35.73;125687.94;6187371;23;20005;-87
2022/06/19 08:08:25;;;;;;;14.63;3.00;;;24.60;88.40;;;-144.05;34.93;125687.94;6188177;23;20036;-86
2022/06/19 08:10:55;;;;;;;12.93;2.70;;;25.00;84.00;;;-144.05;34.96;125687.94;6186576;23;20011;-86
2022/06/19 08:13:28;;;;;;;10.18;2.78;;;24.80;81.10;;;-144.05;36.40;125687.94;6185324;23;20001;-88
2022/06/19 08:16:02;;;;;;;13.30;3.03;;;24.30;86.00;;;-144.05;35.71;125687.94;6186109;23;20309;-86
2022/06/19 08:18:30;;;;;;;10.90;2.88;;;24.30;84.80;;;-144.05;35.02;125687.94;6186346;23;20016;-88
2022/06/19 08:20:57;;;;;;;14.18;2.72;;;24.40;83.50;;;-144.05;35.04;125687.94;6185920;23;20436;-86
2022/06/19 08:23:23;;;;;;;10.50;2.55;;;24.50;83.30;;;-144.05;35.29;125687.94;6187840;23;20020;-87
2022/06/19 08:25:49;;;;;;;9.07;2.45;;;24.50;84.80;;;-144.05;35.33;125687.94;6186422;23;20008;-87
2022/06/19 08:28:23;;;;;;;13.80;3.10;;;24.80;84.60;;;-144.05;34.60;125687.94;6188811;23;20009;-85
2022/06/19 08:30:49;;;;;;;15.23;3.00;;;24.90;81.40;;;-144.05;34.51;125687.94;6188197;23;20033;-86
2022/06/19 08:33:15;;;;;;;11.13;2.65;;;25.20;82.70;;;-144.05;34.24;125687.94;6185599;23;20012;-87
2022/06/19 08:35:52;;;;;;;12.30;2.95;;;25.40;81.90;;;-144.05;34.10;125687.94;6134327;23;20140;-85
2022/06/19 08:38:28;;;;;;;11.70;2.80;;;25.40;80.30;;;-144.05;34.48;125687.94;6159482;23;20077;-88
2022/06/19 08:41:51;;;;;;;11.65;3.33;;;25.20;79.50;;;-144.05;35.69;125687.94;6133591;23;20088;-86
2022/06/19 08:44:49;;;;;;;9.60;2.90;;;24.60;82.80;;;-144.05;35.92;125687.94;6133870;23;20009;-85
2022/06/19 08:47:24;;;;;;;11.70;3.03;;;24.60;83.90;;;-144.05;35.54;125687.94;6134366;23;20064;-88
2022/06/19 08:50:13;;;;;;;11.55;2.60;;;24.90;84.10;;;-144.05;34.27;125687.94;6134641;23;20005;-88
2022/06/19 08:53:26;;;;;;;10.20;2.53;;;25.20;82.60;;;-144.05;34.05;125687.94;6132752;23;20012;-87
2022/06/19 08:57:03;;;;;;;13.68;3.15;;;25.70;80.80;;;-144.05;32.81;125687.94;6135637;23;20009;-86
2022/06/19 09:00:08;;;;;;;12.68;2.67;;;26.10;76.40;;;-144.05;32.98;125687.94;6098313;23;20101;-89
2022/06/19 09:02:57;;;;;;;9.13;2.63;;;26.40;75.00;;;-144.05;32.94;125687.94;6137417;23;20109;-88
2022/06/19 09:05:53;;;;;;;15.15;3.28;;;26.40;75.30;;;-144.05;33.29;125687.94;6136520;23;20025;-89
2022/06/19 09:09:10;;;;;;;11.88;2.80;;;26.00;75.10;;;-144.05;34.10;125687.94;6154620;23;20093;-91
2022/06/19 09:11:58;;;;;;;;;;;25.90;77.50;;;-144.05;33.74;125687.94;6134962;23;20510;-87
2022/06/19 09:15:09;;;;;;;13.80;3.10;;;26.10;75.20;;;-144.05;33.98;125687.94;6134618;23;20195;-86
2022/06/19 09:18:15;;;;;;;13.07;2.80;;;26.10;75.60;;;-144.05;33.25;125687.94;6135527;23;20024;-87
2022/06/19 09:21:05;;;;;;;16.10;3.42;;;26.10;74.00;;;-144.05;32.66;125687.94;6162703;23;20013;-89
2022/06/19 09:24:13;;;;;;;13.52;3.13;;;26.40;74.40;;;-144.05;32.26;125687.94;6161876;23;20005;-88
2022/06/19 09:27:00;;;;;;;11.98;2.85;;;26.60;72.10;;;-144.05;32.14;125687.94;6136201;23;20097;-86
2022/06/19 09:29:51;;;;;;;11.60;2.80;;;26.60;72.10;;;-144.05;32.87;125687.94;6136889;23;20039;-88
2022/06/19 09:32:43;;;;;;;12.13;2.60;;;26.30;72.70;;;-144.05;33.59;125687.94;6136920;23;20009;-89
2022/06/19 09:35:25;;;;;;;10.40;2.70;;;25.90;73.60;;;-144.05;33.57;125687.94;6179005;23;20435;-89
2022/06/19 09:38:15;;;;;;;11.93;2.70;;;26.20;75.60;;;-144.05;32.04;125687.94;6188002;23;20051;-88
2022/06/19 09:40:49;;;;;;;8.93;2.30;;;26.50;72.40;;;-144.05;32.49;125687.94;6197139;23;20028;-89
2022/06/19 09:43:34;;;;;;;9.98;2.70;;;26.60;72.50;;;-144.05;33.09;125687.94;6187215;23;20060;-91
2022/06/19 09:46:32;;;;;;;9.07;2.60;;;26.40;72.60;;;-144.05;33.50;125687.94;6188220;23;20008;-91
2022/06/19 09:49:35;;;;;;;8.38;2.78;;;25.90;74.90;;;-144.05;33.44;125687.94;6192004;23;20009;-89
2022/06/19 09:52:35;;;;;;;9.27;2.72;;;25.60;74.40;;;-144.05;34.31;125687.94;6185872;23;20005;-88
2022/06/19 09:55:26;;;;;;;13.98;2.80;;;25.40;75.50;;;-144.05;34.83;125687.94;6187154;23;20047;-86
2022/06/19 09:58:12;;;;;;;9.65;2.10;;;25.10;77.80;;;-144.05;35.59;125687.94;6186835;23;20021;-87
2022/06/19 10:00:41;;;;;;;11.25;2.85;;;25.00;80.00;;;-144.05;34.90;125687.94;6186333;23;20013;-88
2022/06/19 10:03:40;;;;;;;10.57;2.65;;;25.00;77.10;;;-144.05;35.69;125687.94;6187107;23;20040;-88
2022/06/19 10:06:48;;;;;;;11.93;2.92;;;24.80;78.50;;;-144.05;35.56;125687.94;6187182;23;20092;-88
2022/06/19 10:10:23;;;;;;;8.63;2.42;;;24.90;80.00;;;-144.05;35.35;125687.94;6211288;23;20009;-88
2022/06/19 10:12:56;;;;;;;8.32;2.03;;;24.70;77.20;;;-144.05;36.12;125687.94;6148260;23;20012;-88
2022/06/19 10:15:36;;;;;;;9.88;2.83;;;24.40;80.50;;;-144.05;36.46;125687.94;6186546;23;20005;-89
2022/06/19 10:18:37;;;;;;;8.27;2.53;;;24.00;81.60;;;-144.05;36.42;125687.94;6187407;23;20104;-89
2022/06/19 10:25:03;;;;;;;10.27;2.78;;;23.60;84.10;;;-144.05;37.47;125687.94;6188566;23;20355;-89
2022/06/19 10:28:05;;;;;;;10.48;2.38;;;23.50;87.00;;;-144.05;37.80;125687.94;6187103;23;20016;-88
2022/06/19 10:30:40;;;;;;;11.45;3.20;;;23.60;87.40;;;-144.05;37.72;125687.94;6187028;23;20098;-85
2022/06/19 10:33:31;;;;;;;9.40;3.10;;;23.80;88.20;;;-144.05;37.15;125687.94;6187201;23;20005;-88
2022/06/19 10:36:49;;;;;;;12.65;2.70;;;24.00;86.20;;;-144.05;37.12;125687.94;6187848;23;20005;-87